Terminal Aerodrome Forecast
Issued by NWS

Home | Current Version | Previous Version | Text Only | Print | Product List | Glossary On
Versions: 1 2 3 4 5 6 7 8 9 10 11 12 13 14 15 16 17 18 19 20 21 22 23
000
FTUS43 KDLH 202300
TAFHYR
TAF
KHYR 202338Z 2100/2124 29008KT P6SM -TSRA BKN028CB
     FM210500 VRB03KT 6SM -RA OVC020
     FM211100 35004KT 5SM BR VCSH OVC010
     FM211600 34004KT P6SM BKN020=

USA.gov is the U.S. government's official web portal to all federal, state and local government web resources and services.